Time;durP1;ratioP1;P1;durP2;ratioP2;P2;SDS_P1;SDS_P2;PMS_P1;PMS_P2;Temp;Humidity;BMP_temperature;BMP_pressure;BME280_temperature;BME280_humidity;BME280_pressure;Samples;Min_cycle;Max_cycle;Signal;HPM_P1;HPM_P2
2023/04/02 00:00:17;;;;;;;6.75;5.50;;;;;;;6.69;100.00;100565.72;5045941;28;20116;-80
2023/04/02 00:02:57;;;;;;;7.30;5.10;;;;;;;6.65;100.00;100577.22;5063940;28;20044;-79
2023/04/02 00:05:33;;;;;;;6.95;5.00;;;;;;;6.62;100.00;100583.47;5064726;28;20092;-81
2023/04/02 00:08:01;;;;;;;6.93;5.00;;;;;;;6.62;100.00;100579.09;5046576;28;20039;-81
2023/04/02 00:10:37;;;;;;;8.50;4.65;;;;;;;6.61;100.00;100577.50;5045911;28;20498;-81
2023/04/02 00:13:09;;;;;;;8.35;5.40;;;;;;;6.56;100.00;100592.53;5046686;28;20033;-80
2023/04/02 00:15:36;;;;;;;8.82;5.40;;;;;;;6.55;100.00;100596.06;5047722;28;20032;-81
2023/04/02 00:18:02;;;;;;;6.75;4.70;;;;;;;6.46;100.00;100602.03;5057378;28;20058;-78
2023/04/02 00:20:33;;;;;;;6.63;4.38;;;;;;;6.41;100.00;100602.41;5044340;28;20410;-79
2023/04/02 00:22:58;;;;;;;9.57;6.30;;;;;;;6.42;100.00;100610.94;5046467;28;20044;-80
2023/04/02 00:25:27;;;;;;;10.02;6.50;;;;;;;6.41;100.00;100614.50;5046953;28;20723;-80
2023/04/02 00:27:54;;;;;;;12.88;7.22;;;;;;;6.37;100.00;100613.94;5059283;28;20020;-79
2023/04/02 00:30:20;;;;;;;11.10;6.95;;;;;;;6.37;100.00;100621.66;5047802;28;20116;-80
2023/04/02 00:32:46;;;;;;;10.18;7.00;;;;;;;6.34;100.00;100621.91;5037968;28;20468;-80
2023/04/02 00:35:19;;;;;;;10.98;6.55;;;;;;;6.35;100.00;100626.13;5040612;28;20033;-79
2023/04/02 00:37:45;;;;;;;10.30;7.05;;;;;;;6.34;100.00;100629.66;5060907;28;20075;-78
2023/04/02 00:40:26;;;;;;;10.43;6.82;;;;;;;6.28;100.00;100637.91;5068263;28;20035;-78
2023/04/02 00:42:54;;;;;;;12.05;7.00;;;;;;;6.30;100.00;100648.09;5037373;28;20056;-80
2023/04/02 00:45:27;;;;;;;11.55;7.50;;;;;;;6.38;100.00;100646.47;5045369;28;20039;-79
2023/04/02 00:47:54;;;;;;;10.18;7.25;;;;;;;6.27;100.00;100649.13;5054279;28;20127;-79
2023/04/02 00:50:35;;;;;;;13.65;8.57;;;;;;;6.32;100.00;100661.63;5041649;28;20033;-79
2023/04/02 00:53:08;;;;;;;11.43;7.20;;;;;;;6.28;100.00;100649.97;5047883;28;20119;-79
2023/04/02 00:55:40;;;;;;;7.82;5.88;;;;;;;6.27;100.00;100662.03;5044723;28;20036;-80
2023/04/02 00:58:35;;;;;;;10.23;5.70;;;;;;;6.15;100.00;100670.81;5056819;28;20032;-78
2023/04/02 01:01:01;;;;;;;7.88;5.85;;;;;;;6.14;100.00;100674.31;5053826;28;20041;-79
2023/04/02 01:03:34;;;;;;;11.43;5.10;;;;;;;6.14;100.00;100671.72;5050885;28;20087;-79
2023/04/02 01:06:14;;;;;;;8.38;5.03;;;;;;;6.11;100.00;100679.75;5055465;28;20127;-78
2023/04/02 01:09:02;;;;;;;6.97;4.88;;;;;;;6.02;100.00;100689.03;5049215;28;20032;-80
2023/04/02 01:11:42;;;;;;;6.60;4.75;;;;;;;6.01;100.00;100693.38;5049389;28;20044;-79
2023/04/02 01:14:33;;;;;;;8.90;4.70;;;;;;;6.02;100.00;100692.41;5048561;28;20036;-79
2023/04/02 01:17:04;;;;;;;4.88;4.07;;;;;;;6.06;100.00;100694.75;5068539;28;20094;-80
2023/04/02 01:19:49;;;;;;;8.25;5.75;;;;;;;6.02;100.00;100700.16;5070644;28;20032;-79
2023/04/02 01:22:21;;;;;;;7.95;5.95;;;;;;;6.00;100.00;100701.22;5052059;28;20029;-80
2023/04/02 01:24:47;;;;;;;11.43;6.78;;;;;;;5.91;100.00;100702.78;5052096;28;20028;-79
2023/04/02 01:27:23;;;;;;;13.98;7.78;;;;;;;5.97;100.00;100711.78;5055337;28;20062;-79
2023/04/02 01:29:55;;;;;;;9.82;7.72;;;;;;;5.95;100.00;100705.91;5072023;28;20036;-79
2023/04/02 01:32:22;;;;;;;10.35;7.97;;;;;;;5.97;100.00;100707.47;5064015;28;20043;-78
2023/04/02 01:34:50;;;;;;;10.52;7.90;;;;;;;5.89;100.00;100727.81;5051842;28;20091;-79
2023/04/02 01:37:21;;;;;;;12.05;8.23;;;;;;;5.83;100.00;100734.28;5053091;28;20041;-79
2023/04/02 01:39:58;;;;;;;11.75;7.80;;;;;;;5.74;100.00;100741.97;5069959;28;20528;-79
2023/04/02 01:42:35;;;;;;;11.60;8.07;;;;;;;5.76;100.00;100738.31;5052052;28;20075;-80
2023/04/02 01:45:12;;;;;;;11.32;7.88;;;;;;;5.77;100.00;100739.13;5070704;28;20035;-78
2023/04/02 01:47:39;;;;;;;12.55;8.43;;;;;;;5.71;100.00;100748.19;5071301;28;20070;-77
2023/04/02 01:50:35;;;;;;;12.23;8.45;;;;;;;5.73;100.00;100755.78;5055731;28;20025;-79
2023/04/02 01:53:03;;;;;;;12.32;8.18;;;;;;;5.75;100.00;100753.91;5047845;28;20128;-80
2023/04/02 01:55:59;;;;;;;12.70;8.38;;;;;;;5.66;100.00;100760.59;5050380;28;20032;-79
2023/04/02 01:58:30;;;;;;;12.60;7.47;;;;;;;5.66;100.00;100769.13;5049428;28;20429;-79
2023/04/02 02:01:17;;;;;;;14.10;8.27;;;;;;;5.66;100.00;100770.88;5051349;28;20037;-79
2023/04/02 02:03:43;;;;;;;11.68;7.38;;;;;;;5.68;100.00;100765.63;5069353;28;20029;-78
2023/04/02 02:06:13;;;;;;;13.50;8.35;;;;;;;5.66;100.00;100774.25;5053787;28;20086;-80
2023/04/02 02:08:57;;;;;;;16.02;7.90;;;;;;;5.65;100.00;100787.25;5053280;28;20028;-79
2023/04/02 02:11:27;;;;;;;13.07;7.30;;;;;;;5.57;100.00;100787.06;5064693;28;20040;-78
2023/04/02 02:14:01;;;;;;;17.38;7.93;;;;;;;5.69;100.00;100786.09;5053237;28;20122;-79
2023/04/02 02:16:30;;;;;;;12.13;7.50;;;;;;;5.66;100.00;100794.84;5046279;28;20124;-78
2023/04/02 02:19:01;;;;;;;13.25;8.07;;;;;;;5.64;100.00;100794.16;5053864;28;20036;-79
2023/04/02 02:21:41;;;;;;;10.73;7.90;;;;;;;5.61;100.00;100798.72;5050470;28;20075;-79
2023/04/02 02:24:18;;;;;;;11.13;7.85;;;;;;;5.66;100.00;100796.63;5057020;28;20030;-79
2023/04/02 02:26:47;;;;;;;13.52;8.63;;;;;;;5.66;100.00;100806.91;5052780;28;20443;-79
2023/04/02 02:29:17;;;;;;;15.05;9.65;;;;;;;5.67;100.00;100816.28;5049090;28;20051;-79
2023/04/02 02:31:46;;;;;;;13.25;9.52;;;;;;;5.65;100.00;100821.53;5049125;28;20399;-79
2023/04/02 02:34:21;;;;;;;15.00;9.10;;;;;;;5.59;100.00;100829.72;5054809;28;20028;-79
2023/04/02 02:36:55;;;;;;;10.68;7.93;;;;;;;5.50;100.00;100833.06;5055490;28;20040;-78
2023/04/02 02:39:46;;;;;;;10.65;7.47;;;;;;;5.47;100.00;100839.25;5074204;28;20090;-79
2023/04/02 02:42:40;;;;;;;15.45;7.53;;;;;;;5.51;100.00;100842.38;5055571;28;20040;-79
2023/04/02 02:45:13;;;;;;;9.48;5.88;;;;;;;5.50;100.00;100848.50;5079797;28;20435;-78
2023/04/02 02:47:42;;;;;;;7.65;5.70;;;;;;;5.45;100.00;100860.88;5056644;28;20048;-78
2023/04/02 02:50:21;;;;;;;9.02;5.75;;;;;;;5.35;100.00;100870.25;5059075;28;20544;-78
2023/04/02 02:52:56;;;;;;;9.23;5.55;;;;;;;5.28;100.00;100874.25;5052826;28;20048;-78
2023/04/02 02:55:36;;;;;;;10.75;5.53;;;;;;;5.33;100.00;100875.53;5055036;28;20025;-79
2023/04/02 02:58:16;;;;;;;11.27;5.40;;;;;;;5.36;100.00;100877.84;5057692;28;20033;-78
2023/04/02 03:01:02;;;;;;;8.27;5.28;;;;;;;5.36;100.00;100888.13;5065869;28;20511;-77
2023/04/02 03:03:31;;;;;;;9.25;5.43;;;;;;;5.32;100.00;100891.88;5049824;28;20060;-78
2023/04/02 03:06:06;;;;;;;9.40;5.65;;;;;;;5.26;100.00;100897.50;5063916;28;20062;-77
2023/04/02 03:08:39;;;;;;;9.50;5.22;;;;;;;5.24;100.00;100899.38;5052067;28;20028;-78
2023/04/02 03:11:27;;;;;;;7.75;4.97;;;;;;;5.15;100.00;100900.09;5064446;28;20036;-78
2023/04/02 03:14:01;;;;;;;9.73;5.40;;;;;;;5.21;100.00;100908.13;5047618;28;20035;-78
2023/04/02 03:16:37;;;;;;;12.80;5.68;;;;;;;5.19;100.00;100909.19;5045347;28;21095;-78
2023/04/02 03:19:28;;;;;;;11.52;6.28;;;;;;;5.12;100.00;100916.56;5062181;28;20055;-79
2023/04/02 03:22:01;;;;;;;9.02;6.07;;;;;;;5.26;100.00;100931.75;5063301;28;20035;-77
2023/04/02 03:24:34;;;;;;;10.25;5.60;;;;;;;5.24;100.00;100931.06;5047352;28;20040;-78
2023/04/02 03:27:10;;;;;;;12.40;6.23;;;;;;;5.24;100.00;100937.94;5044987;28;20128;-79
2023/04/02 03:29:41;;;;;;;10.27;6.68;;;;;;;5.22;100.00;100948.34;5069220;28;20463;-78
2023/04/02 03:32:15;;;;;;;10.52;7.22;;;;;;;5.21;100.00;100948.47;5077900;28;20040;-79
2023/04/02 03:35:20;;;;;;;9.23;6.60;;;;;;;5.20;100.00;100955.38;5044853;28;20064;-78
2023/04/02 03:37:59;;;;;;;10.93;6.75;;;;;;;5.17;100.00;100962.50;5047476;28;20167;-78
2023/04/02 03:40:30;;;;;;;9.02;6.43;;;;;;;5.10;100.00;100959.56;5062791;28;20021;-79
2023/04/02 03:43:02;;;;;;;11.90;6.32;;;;;;;5.16;100.00;100969.41;5049328;28;20441;-79
2023/04/02 03:45:35;;;;;;;9.32;6.70;;;;;;;5.01;100.00;100971.38;5044447;28;20033;-79
2023/04/02 03:48:09;;;;;;;9.57;6.75;;;;;;;4.99;100.00;100977.53;5059600;28;20060;-78
2023/04/02 03:50:40;;;;;;;8.25;6.03;;;;;;;4.98;100.00;100976.72;5047969;28;20028;-78
2023/04/02 03:53:08;;;;;;;13.48;6.03;;;;;;;5.04;100.00;100988.31;5062391;28;20437;-79
2023/04/02 03:55:37;;;;;;;8.23;6.55;;;;;;;5.01;100.00;100991.94;5047189;28;20124;-79
2023/04/02 03:58:30;;;;;;;8.35;5.80;;;;;;;4.93;100.00;101001.13;5048356;28;20033;-78
2023/04/02 04:01:05;;;;;;;9.80;7.35;;;;;;;4.92;100.00;101012.38;5056131;28;20040;-79
2023/04/02 04:03:45;;;;;;;9.30;6.60;;;;;;;4.91;100.00;101010.72;5049040;28;20040;-79
2023/04/02 04:06:28;;;;;;;9.88;7.45;;;;;;;4.92;100.00;101018.31;5065482;28;20056;-78
2023/04/02 04:08:59;;;;;;;9.32;6.90;;;;;;;4.91;100.00;101024.38;5043462;28;20104;-78
2023/04/02 04:11:31;;;;;;;12.15;7.35;;;;;;;5.01;100.00;101035.63;5050323;28;20096;-78
2023/04/02 04:14:15;;;;;;;12.90;7.05;;;;;;;4.92;100.00;101041.44;5053024;28;20487;-78
2023/04/02 04:16:55;;;;;;;11.43;6.28;;;;;;;4.90;100.00;101050.19;5045056;28;20041;-78
2023/04/02 04:19:35;;;;;;;8.85;5.90;;;;;;;4.87;100.00;101053.81;5042019;28;20028;-77
2023/04/02 04:22:17;;;;;;;9.68;5.18;;;;;;;4.91;100.00;101062.09;5062641;28;20037;-78
2023/04/02 04:24:46;;;;;;;8.00;4.90;;;;;;;4.81;100.00;101060.22;5043804;28;20031;-78
2023/04/02 04:27:32;;;;;;;8.10;5.35;;;;;;;4.70;100.00;101070.44;5051834;28;20474;-77
2023/04/02 04:30:09;;;;;;;8.30;5.45;;;;;;;4.62;100.00;101081.28;5049227;28;20087;-77
2023/04/02 04:32:49;;;;;;;7.82;4.97;;;;;;;4.66;100.00;101081.88;5043567;28;20120;-78
2023/04/02 04:35:36;;;;;;;7.70;5.10;;;;;;;4.73;100.00;101092.50;5049086;28;20048;-78
2023/04/02 04:38:09;;;;;;;8.00;5.43;;;;;;;4.72;100.00;101101.97;5060686;28;20021;-77
2023/04/02 04:40:41;;;;;;;9.02;5.85;;;;;;;4.64;100.00;101102.53;5062969;28;20028;-78
2023/04/02 04:43:14;;;;;;;9.17;5.57;;;;;;;4.61;100.00;101102.75;5056300;28;20024;-78
2023/04/02 04:45:46;;;;;;;9.70;5.68;;;;;;;4.61;100.00;101107.88;5056599;28;20055;-77
2023/04/02 04:48:30;;;;;;;13.20;7.63;;;;;;;4.65;100.00;101113.63;5051375;28;20132;-78
2023/04/02 04:51:01;;;;;;;10.73;6.20;;;;;;;4.70;100.00;101118.44;5062072;28;20036;-77
2023/04/02 04:53:29;;;;;;;12.93;6.15;;;;;;;4.59;100.00;101126.91;5066092;28;20032;-78
2023/04/02 04:56:03;;;;;;;8.48;5.85;;;;;;;4.68;100.00;101124.50;5046992;28;20049;-77
2023/04/02 04:58:43;;;;;;;10.45;6.65;;;;;;;4.63;100.00;101126.59;5056962;28;20028;-78
2023/04/02 05:01:42;;;;;;;11.45;5.97;;;;;;;4.71;100.00;101135.47;5045986;28;20124;-78
2023/04/02 05:04:28;;;;;;;14.68;8.93;;;;;;;4.63;100.00;101136.03;5049766;28;20036;-78
2023/04/02 05:07:15;;;;;;;16.00;10.50;;;;;;;4.55;100.00;101152.00;5055253;28;20059;-77
2023/04/02 05:10:06;;;;;;;20.50;10.90;;;;;;;4.50;100.00;101151.50;5064950;28;20457;-77
2023/04/02 05:12:52;;;;;;;14.10;10.65;;;;;;;4.60;100.00;101161.97;5047568;28;20035;-78
2023/04/02 05:15:34;;;;;;;17.10;11.18;;;;;;;4.65;100.00;101172.72;5067094;28;20040;-77
2023/04/02 05:18:30;;;;;;;23.50;11.55;;;;;;;4.50;100.00;101184.88;5046552;28;20037;-77
2023/04/02 05:21:02;;;;;;;16.67;10.52;;;;;;;4.44;100.00;101190.44;5046967;28;20078;-77
2023/04/02 05:23:35;;;;;;;;;;;;;;;4.40;100.00;101191.59;5066608;28;20029;-77
2023/04/02 05:26:15;;;;;;;18.27;11.15;;;;;;;4.43;100.00;101199.91;5051041;28;19916;-78
2023/04/02 05:29:00;;;;;;;18.38;11.48;;;;;;;4.46;100.00;101215.13;5050804;28;20091;-78
2023/04/02 05:31:47;;;;;;;14.95;10.80;;;;;;;4.40;100.00;101215.50;5078475;28;20840;-78
2023/04/02 05:34:23;;;;;;;17.90;12.32;;;;;;;4.31;100.00;101223.03;5055364;28;20145;-78
2023/04/02 05:36:50;;;;;;;20.00;11.98;;;;;;;4.26;100.00;101231.06;5043036;28;20033;-77
2023/04/02 05:39:21;;;;;;;20.48;11.75;;;;;;;4.25;100.00;101231.97;5063879;28;20024;-79
2023/04/02 05:42:01;;;;;;;22.13;12.50;;;;;;;4.18;100.00;101238.44;5051725;28;20029;-77
2023/04/02 05:44:44;;;;;;;15.60;11.32;;;;;;;4.26;100.00;101246.47;5051150;28;20025;-79
2023/04/02 05:47:21;;;;;;;17.25;11.30;;;;;;;4.14;100.00;101250.66;5072844;28;20032;-78
2023/04/02 05:50:09;;;;;;;17.80;10.75;;;;;;;4.00;100.00;101256.72;5049148;28;20033;-77
2023/04/02 05:52:48;;;;;;;21.23;10.85;;;;;;;4.12;100.00;101260.22;5049933;28;20036;-77
2023/04/02 05:55:36;;;;;;;18.92;10.93;;;;;;;4.02;100.00;101270.28;5066679;28;20702;-79
2023/04/02 05:58:26;;;;;;;16.67;10.20;;;;;;;4.05;100.00;101275.22;5043460;28;20065;-77
2023/04/02 06:01:14;;;;;;;18.13;11.40;;;;;;;3.97;100.00;101266.38;5038754;28;20527;-76
2023/04/02 06:04:01;;;;;;;21.30;11.70;;;;;;;4.02;100.00;101280.53;5048080;28;20087;-77
2023/04/02 06:06:44;;;;;;;17.40;11.50;;;;;;;4.07;100.00;101286.19;5046717;28;20059;-77
2023/04/02 06:09:16;;;;;;;23.58;11.27;;;;;;;4.03;100.00;101286.47;5063615;28;20088;-76
2023/04/02 06:11:48;;;;;;;23.70;11.50;;;;;;;4.05;100.00;101294.91;5062121;28;20029;-76
2023/04/02 06:14:16;;;;;;;19.05;11.40;;;;;;;4.06;100.00;101297.38;5060353;28;20301;-78
2023/04/02 06:16:44;;;;;;;23.45;11.25;;;;;;;4.17;100.00;101309.50;5045036;28;20033;-77
2023/04/02 06:19:29;;;;;;;22.13;11.55;;;;;;;4.07;100.00;101317.00;5062437;28;20387;-77
2023/04/02 06:22:07;;;;;;;24.55;11.07;;;;;;;4.09;100.00;101314.34;5049195;28;20029;-77
2023/04/02 06:24:38;;;;;;;22.92;13.50;;;;;;;4.00;100.00;101325.19;5046423;28;20446;-77
2023/04/02 06:27:05;;;;;;;22.25;11.63;;;;;;;4.01;100.00;101332.81;5064619;28;20079;-77
2023/04/02 06:29:38;;;;;;;20.58;13.07;;;;;;;4.08;100.00;101335.78;5066124;28;20036;-77
2023/04/02 06:32:10;;;;;;;21.70;12.30;;;;;;;4.09;100.00;101345.94;5048248;28;20206;-77
2023/04/02 06:34:40;;;;;;;23.05;12.65;;;;;;;4.18;100.00;101338.56;5059968;28;20092;-77
2023/04/02 06:37:24;;;;;;;23.30;13.05;;;;;;;4.08;100.00;101343.47;5062728;28;20494;-77
2023/04/02 06:39:58;;;;;;;24.23;13.10;;;;;;;4.01;100.00;101358.47;5049395;28;20084;-77
2023/04/02 06:42:32;;;;;;;49.17;22.33;;;;;;;4.03;100.00;101364.31;5047610;28;20030;-79
2023/04/02 06:45:05;;;;;;;21.70;12.00;;;;;;;3.97;100.00;101371.59;5048913;28;20028;-77
2023/04/02 06:47:48;;;;;;;23.63;10.90;;;;;;;3.89;100.00;101372.91;5045109;28;20033;-77
2023/04/02 06:50:32;;;;;;;20.27;11.10;;;;;;;3.86;100.00;101387.66;5058011;28;20025;-77
2023/04/02 06:53:05;;;;;;;26.08;11.18;;;;;;;3.93;100.00;101381.22;5062288;28;20043;-77
2023/04/02 06:55:51;;;;;;;25.58;11.30;;;;;;;3.87;100.00;101385.00;5044304;28;20044;-76
2023/04/02 06:58:21;;;;;;;22.13;11.43;;;;;;;3.83;100.00;101387.88;5059897;28;20032;-78
2023/04/02 07:00:49;;;;;;;22.63;11.32;;;;;;;3.87;100.00;101404.72;5063759;28;20029;-79
2023/04/02 07:03:26;;;;;;;28.85;11.55;;;;;;;3.79;100.00;101412.09;5047865;28;20412;-76
2023/04/02 07:05:54;;;;;;;22.48;10.90;;;;;;;3.86;100.00;101408.19;5045786;28;20047;-77
2023/04/02 07:08:20;;;;;;;21.65;11.48;;;;;;;3.86;100.00;101410.75;5049947;28;20139;-77
2023/04/02 07:10:46;;;;;;;21.73;11.75;;;;;;;3.84;100.00;101415.16;5060033;28;20116;-77
2023/04/02 07:13:20;;;;;;;22.42;10.88;;;;;;;3.76;100.00;101425.09;5067234;28;20042;-77
2023/04/02 07:15:49;;;;;;;26.55;11.27;;;;;;;3.93;100.00;101429.16;5063210;28;20051;-76
2023/04/02 07:18:21;;;;;;;25.15;11.93;;;;;;;3.93;100.00;101437.69;5059123;28;20036;-77
2023/04/02 07:20:47;;;;;;;24.00;12.77;;;;;;;3.92;100.00;101450.59;5061139;28;20116;-77
2023/04/02 07:23:13;;;;;;;21.95;10.43;;;;;;;3.96;100.00;101455.47;5050009;28;20024;-77
2023/04/02 07:25:39;;;;;;;26.58;10.77;;;;;;;3.95;100.00;101460.69;5040040;28;20043;-76
2023/04/02 07:28:05;;;;;;;25.83;12.93;;;;;;;3.99;100.00;101464.69;5065578;28;20033;-77
2023/04/02 07:30:30;;;;;;;24.00;11.82;;;;;;;3.93;100.00;101473.59;5065687;28;20112;-77
2023/04/02 07:32:56;;;;;;;20.80;10.25;;;;;;;3.90;100.00;101481.50;5065557;28;20572;-77
2023/04/02 07:35:22;;;;;;;21.90;10.65;;;;;;;3.89;100.00;101477.28;5048129;28;20040;-77
2023/04/02 07:37:48;;;;;;;29.00;11.10;;;;;;;3.96;100.00;101485.44;5062328;28;20024;-77
2023/04/02 07:40:20;;;;;;;23.00;11.55;;;;;;;3.97;100.00;101492.19;5047434;28;20036;-77
2023/04/02 07:42:46;;;;;;;20.02;10.57;;;;;;;3.91;100.00;101498.53;5060487;28;20047;-77
2023/04/02 07:45:12;;;;;;;22.35;9.85;;;;;;;4.04;100.00;101499.41;5061211;28;20029;-76
2023/04/02 07:47:37;;;;;;;19.95;10.25;;;;;;;3.98;100.00;101507.50;5036408;28;20037;-77
2023/04/02 07:50:03;;;;;;;18.40;9.18;;;;;;;3.99;100.00;101498.88;5044432;28;20099;-77
2023/04/02 07:52:30;;;;;;;22.02;9.38;;;;;;;4.05;100.00;101515.63;5060231;28;20032;-76
2023/04/02 07:54:55;;;;;;;16.23;9.13;;;;;;;4.00;100.00;101518.50;5062373;28;20449;-77
2023/04/02 07:57:21;;;;;;;17.58;8.85;;;;;;;3.98;100.00;101522.91;5061140;28;20032;-76
2023/04/02 07:59:46;;;;;;;19.10;8.65;;;;;;;4.06;100.00;101525.81;5062465;28;20410;-77
2023/04/02 08:02:18;;;;;;;19.17;8.52;;;;;;;4.11;100.00;101522.97;5045727;28;20043;-79
2023/04/02 08:04:44;;;;;;;14.10;9.32;;;;;;;4.03;100.00;101533.72;5066188;28;20036;-75
2023/04/02 08:07:09;;;;;;;19.70;8.55;;;;;;;4.01;100.00;101537.28;5048421;28;20514;-78
2023/04/02 08:09:35;;;;;;;18.27;8.63;;;;;;;4.02;100.00;101538.94;5045294;28;20028;-79
2023/04/02 08:12:00;;;;;;;16.02;8.60;;;;;;;3.95;100.00;101541.03;5055409;28;20403;-79
2023/04/02 08:14:26;;;;;;;15.55;9.20;;;;;;;3.89;100.00;101544.81;5066593;28;20044;-76
2023/04/02 08:16:54;;;;;;;18.67;9.90;;;;;;;3.99;100.00;101555.34;5052191;28;20056;-77
2023/04/02 08:19:20;;;;;;;20.35;9.20;;;;;;;3.97;100.00;101557.16;5065620;28;20475;-78
2023/04/02 08:21:49;;;;;;;17.90;10.25;;;;;;;4.07;100.00;101558.28;5062271;28;20028;-77
2023/04/02 08:24:17;;;;;;;21.20;10.60;;;;;;;4.07;100.00;101573.66;5065527;28;20094;-77
2023/04/02 08:26:44;;;;;;;23.52;10.90;;;;;;;4.11;100.00;101571.75;5057184;28;20510;-77
2023/04/02 08:29:10;;;;;;;25.13;11.63;;;;;;;4.15;100.00;101572.38;5049846;28;20036;-76
2023/04/02 08:31:36;;;;;;;23.10;11.23;;;;;;;4.06;99.63;101581.47;5063280;28;20044;-76
2023/04/02 08:34:02;;;;;;;19.90;11.32;;;;;;;4.09;100.00;101594.94;5049833;28;20043;-76
2023/04/02 08:36:36;;;;;;;19.60;9.27;;;;;;;4.06;100.00;101595.09;5068576;28;20059;-77
2023/04/02 08:39:03;;;;;;;20.55;10.50;;;;;;;4.15;100.00;101591.16;5049333;28;20071;-76
2023/04/02 08:41:35;;;;;;;19.48;8.90;;;;;;;4.17;100.00;101604.72;5070307;28;20040;-78
2023/04/02 08:44:13;;;;;;;20.52;9.57;;;;;;;4.25;99.37;101611.94;5062457;28;20059;-75
2023/04/02 08:46:48;;;;;;;31.70;13.48;;;;;;;4.27;98.72;101610.94;5064407;28;20040;-77
2023/04/02 08:49:16;;;;;;;22.77;11.23;;;;;;;4.24;98.54;101623.16;5045933;28;20047;-76
2023/04/02 08:51:43;;;;;;;28.40;15.40;;;;;;;4.34;99.09;101629.34;5061943;28;20039;-78
2023/04/02 08:54:16;;;;;;;19.92;11.35;;;;;;;4.38;98.82;101630.00;5045618;28;20060;-77
2023/04/02 08:57:00;;;;;;;20.75;10.65;;;;;;;4.37;97.74;101639.44;5047000;28;20040;-76
2023/04/02 08:59:39;;;;;;;21.92;11.02;;;;;;;4.42;98.25;101647.66;5066252;28;20031;-76
2023/04/02 09:02:23;;;;;;;21.50;8.13;;;;;;;4.48;96.57;101652.44;5048851;28;20029;-77
2023/04/02 09:04:49;;;;;;;29.45;16.33;;;;;;;4.57;95.84;101661.31;5065552;28;20667;-77
2023/04/02 09:07:16;;;;;;;22.70;11.60;;;;;;;4.52;96.43;101660.78;5045672;28;20059;-78
2023/04/02 09:09:47;;;;;;;25.52;10.73;;;;;;;4.61;97.12;101662.75;5050703;28;20508;-76
2023/04/02 09:12:22;;;;;;;16.45;8.93;;;;;;;4.63;96.24;101668.66;5065092;28;20460;-78
2023/04/02 09:15:05;;;;;;;18.42;9.32;;;;;;;4.75;96.46;101681.66;5058509;28;20028;-76
2023/04/02 09:17:30;;;;;;;18.73;6.93;;;;;;;4.75;94.67;101679.09;5041163;28;20037;-76
2023/04/02 09:20:01;;;;;;;14.38;6.65;;;;;;;4.66;94.68;101680.47;5061038;28;20036;-77
2023/04/02 09:22:32;;;;;;;14.95;7.60;;;;;;;4.64;94.02;101690.84;5038825;28;20033;-76
2023/04/02 09:25:01;;;;;;;14.02;6.97;;;;;;;4.60;95.35;101696.28;5061582;28;20052;-76
2023/04/02 09:27:29;;;;;;;13.73;6.22;;;;;;;4.72;93.88;101699.81;5062909;28;20037;-78
2023/04/02 09:30:02;;;;;;;16.55;6.85;;;;;;;4.61;93.48;101700.47;5044885;28;20031;-76
2023/04/02 09:32:40;;;;;;;;;;;;;;;4.68;93.73;101692.28;5064501;28;20483;-77
2023/04/02 09:35:11;;;;;;;15.45;7.43;;;;;;;4.89;93.08;101704.72;5048880;28;19922;-76
2023/04/02 09:37:38;;;;;;;13.80;7.13;;;;;;;4.83;91.81;101708.50;5064683;28;20040;-78
2023/04/02 09:40:16;;;;;;;14.85;7.35;;;;;;;4.87;91.79;101720.22;5062986;28;20039;-76
2023/04/02 09:42:41;;;;;;;14.45;7.05;;;;;;;4.99;92.34;101721.22;5068876;28;20039;-76
2023/04/02 09:45:16;;;;;;;15.75;7.68;;;;;;;4.95;91.42;101724.88;5042588;28;20029;-75
2023/04/02 09:47:41;;;;;;;17.88;7.75;;;;;;;4.95;92.45;101731.78;5048350;28;20040;-78
2023/04/02 09:50:27;;;;;;;14.48;7.38;;;;;;;4.87;91.76;101735.66;5049354;28;20040;-75
2023/04/02 09:52:53;;;;;;;14.05;7.78;;;;;;;4.90;92.09;101728.66;5064249;28;20123;-78
2023/04/02 09:55:18;;;;;;;14.50;8.15;;;;;;;5.01;91.68;101739.09;5048513;28;20566;-75
2023/04/02 09:57:46;;;;;;;9.55;6.68;;;;;;;5.12;92.18;101743.56;5043191;28;20040;-75
2023/04/02 10:00:18;;;;;;;10.05;5.63;;;;;;;5.16;91.94;101740.72;5063721;28;20442;-77
2023/04/02 10:02:45;;;;;;;11.02;5.72;;;;;;;5.32;92.32;101745.69;5044394;28;20495;-75
2023/04/02 10:05:21;;;;;;;13.45;6.47;;;;;;;5.51;91.24;101752.22;5064077;28;20020;-74
2023/04/02 10:07:52;;;;;;;11.88;7.25;;;;;;;5.55;91.19;101761.41;5058175;28;20033;-75
2023/04/02 10:10:27;;;;;;;15.70;7.10;;;;;;;5.52;90.83;101761.59;5062969;27;20036;-76
2023/04/02 10:13:03;;;;;;;12.52;6.45;;;;;;;5.38;87.96;101767.63;5046786;28;20067;-75
2023/04/02 10:15:35;;;;;;;14.82;7.88;;;;;;;5.44;88.89;101768.06;5049955;28;20479;-77
2023/04/02 10:18:15;;;;;;;16.33;7.20;;;;;;;5.53;89.50;101768.41;5063869;28;20115;-77
2023/04/02 10:20:44;;;;;;;15.05;6.00;;;;;;;5.51;89.20;101778.78;5058733;28;20033;-75
2023/04/02 10:23:15;;;;;;;13.63;6.60;;;;;;;5.63;90.07;101784.88;5059879;28;20067;-75
2023/04/02 10:26:08;;;;;;;14.75;8.15;;;;;;;5.77;88.68;101789.97;5046338;28;20095;-78
2023/04/02 10:29:01;;;;;;;12.52;7.88;;;;;;;5.72;87.83;101798.91;5024679;28;20041;-76
2023/04/02 10:31:43;;;;;;;11.43;6.60;;;;;;;5.80;88.97;101796.63;5064181;28;20075;-76
2023/04/02 10:34:18;;;;;;;13.88;6.97;;;;;;;5.74;86.22;101807.34;5057156;28;20056;-76
2023/04/02 10:36:53;;;;;;;15.57;7.35;;;;;;;5.78;87.70;101817.34;5054833;28;20038;-75
2023/04/02 10:39:26;;;;;;;12.30;7.20;;;;;;;5.77;87.50;101825.16;5079172;28;20054;-75
2023/04/02 10:41:59;;;;;;;16.75;6.70;;;;;;;5.64;85.59;101825.94;5055527;28;20103;-76
2023/04/02 10:44:29;;;;;;;14.40;8.38;;;;;;;5.74;86.82;101831.31;5058688;28;20028;-76
2023/04/02 10:47:22;;;;;;;21.67;10.45;;;;;;;5.80;86.22;101843.81;5062986;28;20043;-78
2023/04/02 10:50:08;;;;;;;12.43;7.45;;;;;;;5.71;85.58;101846.13;5057886;28;20287;-76
2023/04/02 10:52:56;;;;;;;14.23;7.97;;;;;;;5.87;86.37;101846.81;5057582;28;20041;-76
2023/04/02 10:55:27;;;;;;;11.93;6.13;;;;;;;5.83;85.25;101847.94;5062136;28;20063;-76
2023/04/02 10:57:58;;;;;;;15.57;6.40;;;;;;;5.82;84.64;101852.25;5064013;28;20038;-75
2023/04/02 11:00:27;;;;;;;14.18;8.32;;;;;;;6.02;85.15;101855.31;5061179;28;20029;-76
2023/04/02 11:03:12;;;;;;;12.18;6.80;;;;;;;5.98;84.38;101859.84;5063758;28;20032;-77
2023/04/02 11:05:45;;;;;;;18.30;9.00;;;;;;;6.08;84.36;101859.25;5063785;28;20398;-76
2023/04/02 11:08:24;;;;;;;16.55;10.15;;;;;;;5.97;84.56;101863.34;5049027;28;20025;-78
2023/04/02 11:11:06;;;;;;;20.13;8.52;;;;;;;5.92;84.46;101872.25;5060401;28;20380;-76
2023/04/02 11:14:03;;;;;;;14.10;8.32;;;;;;;5.91;84.25;101863.69;5066346;28;20029;-76
2023/04/02 11:16:28;;;;;;;11.65;7.82;;;;;;;6.08;85.33;101874.69;5043319;28;20041;-75
2023/04/02 11:19:07;;;;;;;13.05;5.75;;;;;;;6.10;84.20;101873.66;5059327;28;20036;-76
2023/04/02 11:21:47;;;;;;;11.13;7.07;;;;;;;6.25;85.04;101876.97;5051650;28;20487;-76
2023/04/02 11:24:35;;;;;;;11.38;5.85;;;;;;;6.05;82.87;101880.88;5063357;28;20400;-75
2023/04/02 11:27:10;;;;;;;8.88;5.80;;;;;;;5.94;82.25;101878.13;5059871;28;20053;-75
2023/04/02 11:30:01;;;;;;;21.45;8.70;;;;;;;5.96;84.19;101877.13;5060303;28;20032;-76
2023/04/02 11:32:30;;;;;;;11.30;5.65;;;;;;;5.83;83.61;101886.53;5056929;28;20029;-76
2023/04/02 11:34:55;;;;;;;11.35;6.10;;;;;;;5.83;84.16;101892.50;5064294;28;20036;-75
2023/04/02 11:37:43;;;;;;;10.23;5.47;;;;;;;5.89;83.86;101891.28;5059085;28;20111;-76
2023/04/02 11:40:15;;;;;;;11.43;5.90;;;;;;;6.02;83.00;101883.63;5060396;28;20102;-76
2023/04/02 11:42:42;;;;;;;13.55;6.53;;;;;;;6.00;84.39;101890.63;5059369;28;20043;-75
2023/04/02 11:47:58;;;;;;;12.32;7.68;;;;;;;6.03;82.43;101904.16;5059348;28;20037;-77
2023/04/02 11:50:31;;;;;;;18.73;7.88;;;;;;;5.88;82.97;101906.81;5059107;28;20487;-78
2023/04/02 11:53:02;;;;;;;15.20;7.45;;;;;;;5.92;82.77;101916.03;5062369;28;20112;-75
2023/04/02 11:55:32;;;;;;;12.15;7.00;;;;;;;6.08;83.36;101926.19;5061000;28;20124;-75